createdAt,value
2022-10-02T00:00:02.214Z,87.59
2022-10-02T00:02:43.957Z,87.36
2022-10-02T00:05:15.200Z,87.29
2022-10-02T00:07:53.903Z,86.84
2022-10-02T00:10:34.390Z,86.01
2022-10-02T00:13:05.929Z,86.30
2022-10-02T00:15:35.713Z,85.19
2022-10-02T00:18:12.552Z,85.77
2022-10-02T00:21:03.085Z,85.34
2022-10-02T00:23:43.154Z,85.12
2022-10-02T00:26:17.880Z,84.59
2022-10-02T00:29:16.622Z,84.22
2022-10-02T00:32:03.164Z,84.25
2022-10-02T00:34:44.820Z,85.01
2022-10-02T00:37:28.688Z,84.48
2022-10-02T00:40:29.660Z,84.13
2022-10-02T00:43:18.276Z,84.57
2022-10-02T00:46:09.939Z,85.52
2022-10-02T00:48:45.402Z,85.94
2022-10-02T00:51:44.360Z,84.41
2022-10-02T00:54:16.861Z,85.57
2022-10-02T00:56:57.087Z,86.36
2022-10-02T00:59:51.512Z,85.45
2022-10-02T01:02:24.162Z,84.82
2022-10-02T01:04:50.878Z,85.28
2022-10-02T01:07:17.435Z,85.16
2022-10-02T01:09:45.562Z,85.49
2022-10-02T01:12:12.980Z,85.72
2022-10-02T01:14:40.884Z,85.38
2022-10-02T01:17:23.657Z,84.25
2022-10-02T01:19:50.711Z,84.46
2022-10-02T01:22:43.083Z,84.27
2022-10-02T01:25:09.746Z,84.51
2022-10-02T01:27:39.394Z,84.58
2022-10-02T01:30:11.951Z,83.72
2022-10-02T01:32:44.099Z,83.85
2022-10-02T01:35:10.854Z,82.97
2022-10-02T01:37:41.110Z,82.18
2022-10-02T01:40:10.695Z,82.63
2022-10-02T01:42:38.932Z,82.17
2022-10-02T01:45:08.138Z,83.24
2022-10-02T01:48:02.813Z,83.03
2022-10-02T01:50:39.801Z,82.87
2022-10-02T01:53:20.354Z,82.46
2022-10-02T01:56:03.928Z,82.68
2022-10-02T01:58:55.369Z,83.02
2022-10-02T02:01:25.236Z,83.25
2022-10-02T02:04:14.148Z,84.44
2022-10-02T02:06:55.913Z,85.73
2022-10-02T02:09:39.872Z,86.06
2022-10-02T02:12:15.179Z,84.06
2022-10-02T02:15:00.104Z,83.94
2022-10-02T02:17:34.194Z,83.29
2022-10-02T02:20:13.743Z,83.96
2022-10-02T02:22:46.402Z,83.26
2022-10-02T02:25:17.741Z,84.79
2022-10-02T02:27:56.081Z,84.47
2022-10-02T02:30:24.068Z,84.16
2022-10-02T02:32:56.870Z,84.57
2022-10-02T02:35:27.561Z,83.23
2022-10-02T02:38:02.396Z,82.71
2022-10-02T02:40:31.379Z,83.31
2022-10-02T02:43:14.532Z,83.63
2022-10-02T02:45:49.059Z,83.81
2022-10-02T02:48:41.321Z,85.64
2022-10-02T02:51:15.198Z,86.14
2022-10-02T02:53:49.314Z,85.39
2022-10-02T02:56:19.290Z,85.14
2022-10-02T02:58:53.930Z,85.10
2022-10-02T03:01:21.000Z,84.44
2022-10-02T03:03:48.351Z,84.48
2022-10-02T03:06:20.580Z,84.10
2022-10-02T03:08:50.333Z,83.87
2022-10-02T03:11:38.842Z,83.94
2022-10-02T03:14:26.405Z,83.92
2022-10-02T03:17:23.889Z,83.99
2022-10-02T03:20:29.225Z,83.77
2022-10-02T03:23:00.021Z,83.82
2022-10-02T03:25:41.460Z,83.92
2022-10-02T03:28:50.539Z,83.69
2022-10-02T03:31:12.959Z,83.29
2022-10-02T03:33:40.993Z,83.25
2022-10-02T03:36:08.656Z,82.95
2022-10-02T03:38:35.995Z,82.85
2022-10-02T03:41:02.572Z,83.96
2022-10-02T03:43:30.645Z,84.92
2022-10-02T03:45:57.412Z,83.88
2022-10-02T03:48:24.205Z,84.22
2022-10-02T03:50:51.031Z,84.71
2022-10-02T03:53:21.111Z,84.10
2022-10-02T03:55:57.651Z,84.82
2022-10-02T03:58:25.702Z,85.11
2022-10-02T04:00:58.886Z,83.81
2022-10-02T04:03:43.788Z,83.80
2022-10-02T04:06:25.304Z,83.81
2022-10-02T04:09:01.189Z,83.41
2022-10-02T04:11:33.464Z,83.19
2022-10-02T04:14:10.080Z,83.01
2022-10-02T04:16:42.603Z,84.13
2022-10-02T04:19:17.137Z,83.96
2022-10-02T04:21:55.588Z,84.75
2022-10-02T04:24:22.119Z,84.73
2022-10-02T04:27:23.606Z,84.11
2022-10-02T04:29:58.314Z,84.18
2022-10-02T04:32:27.687Z,84.13
2022-10-02T04:34:54.548Z,83.02
2022-10-02T04:37:44.582Z,83.02
2022-10-02T04:40:29.806Z,83.16
2022-10-02T04:43:21.062Z,83.09
2022-10-02T04:46:17.098Z,83.64
2022-10-02T04:48:52.965Z,83.61
2022-10-02T04:51:41.162Z,83.79
2022-10-02T04:54:32.647Z,84.88
2022-10-02T04:57:05.517Z,85.60
2022-10-02T04:59:47.044Z,84.96
2022-10-02T05:02:35.241Z,84.95
2022-10-02T05:05:23.574Z,85.26
2022-10-02T05:08:20.383Z,83.74
2022-10-02T05:11:13.234Z,84.55
2022-10-02T05:13:45.798Z,85.21
2022-10-02T05:16:43.089Z,85.15
2022-10-02T05:19:27.813Z,84.93
2022-10-02T05:22:12.108Z,85.72
2022-10-02T05:24:57.931Z,83.75
2022-10-02T05:27:25.028Z,84.36
2022-10-02T05:29:57.416Z,84.39
2022-10-02T05:32:48.816Z,84.63
2022-10-02T05:35:24.307Z,84.61
2022-10-02T05:37:59.867Z,84.35
2022-10-02T05:40:30.589Z,85.26
2022-10-02T05:43:10.988Z,84.61
2022-10-02T05:45:40.757Z,84.79
2022-10-02T05:48:18.450Z,84.63
2022-10-02T05:50:50.071Z,84.08
2022-10-02T05:53:33.834Z,84.06
2022-10-02T05:56:09.337Z,85.42
2022-10-02T05:58:36.674Z,86.14
2022-10-02T06:01:17.817Z,85.72
2022-10-02T06:04:19.262Z,85.56
2022-10-02T06:06:51.681Z,85.46
2022-10-02T06:09:38.537Z,85.25
2022-10-02T06:12:14.511Z,86.01
2022-10-02T06:14:51.008Z,86.03
2022-10-02T06:17:49.661Z,86.01
2022-10-02T06:20:37.610Z,86.59
2022-10-02T06:23:16.331Z,86.18
2022-10-02T06:26:17.982Z,88.60
2022-10-02T06:28:53.076Z,89.01
2022-10-02T06:31:57.425Z,89.48
2022-10-02T06:34:24.114Z,89.68
2022-10-02T06:37:13.961Z,89.46
2022-10-02T06:39:56.777Z,90.02
2022-10-02T06:42:38.425Z,89.53
2022-10-02T06:45:23.721Z,90.22
2022-10-02T06:47:57.523Z,90.47
2022-10-02T06:50:30.381Z,89.92
2022-10-02T06:53:29.224Z,89.82
2022-10-02T06:56:26.809Z,90.03
2022-10-02T06:59:14.883Z,89.54
2022-10-02T07:01:57.620Z,90.34
2022-10-02T07:04:47.024Z,90.05
2022-10-02T07:07:13.552Z,90.90
2022-10-02T07:10:03.551Z,91.17
2022-10-02T07:13:05.434Z,91.32
2022-10-02T07:15:49.298Z,90.32
2022-10-02T07:18:21.627Z,90.39
2022-10-02T07:21:03.078Z,90.18
2022-10-02T07:24:02.630Z,90.22
2022-10-02T07:26:48.300Z,89.77
2022-10-02T07:29:32.431Z,90.73
2022-10-02T07:32:17.668Z,90.05
2022-10-02T07:35:22.156Z,90.33
2022-10-02T07:38:10.628Z,90.49
2022-10-02T07:41:16.053Z,89.46
2022-10-02T07:43:54.682Z,89.90
2022-10-02T07:46:40.069Z,89.68
2022-10-02T07:49:39.393Z,90.32
2022-10-02T07:52:28.732Z,89.83
2022-10-02T07:54:55.329Z,90.21
2022-10-02T07:57:27.627Z,91.11
2022-10-02T08:00:23.947Z,93.59
2022-10-02T08:02:59.634Z,93.31
2022-10-02T08:05:42.482Z,93.70
2022-10-02T08:08:47.718Z,93.96
2022-10-02T08:11:24.318Z,92.54
2022-10-02T08:13:57.873Z,92.38
2022-10-02T08:16:32.457Z,92.96
2022-10-02T08:19:21.708Z,92.14
2022-10-02T08:21:55.509Z,90.79
2022-10-02T08:24:29.975Z,90.20
2022-10-02T08:27:08.377Z,89.17
2022-10-02T08:29:48.972Z,88.89
2022-10-02T08:32:15.581Z,88.64
2022-10-02T08:34:43.535Z,87.67
2022-10-02T08:37:19.233Z,87.40
2022-10-02T08:40:22.982Z,88.40
2022-10-02T08:43:13.991Z,88.16
2022-10-02T08:46:14.531Z,86.50
2022-10-02T08:49:17.767Z,86.35
2022-10-02T08:52:16.283Z,85.96
2022-10-02T08:55:10.581Z,84.83
2022-10-02T08:57:54.421Z,84.75
2022-10-02T09:00:25.051Z,85.21
2022-10-02T09:02:54.375Z,85.05
2022-10-02T09:05:56.448Z,83.07
2022-10-02T09:09:07.379Z,82.35
2022-10-02T09:11:52.092Z,82.04
2022-10-02T09:14:58.811Z,81.21
2022-10-02T09:17:35.498Z,81.64
2022-10-02T09:20:05.005Z,80.80
2022-10-02T09:22:40.338Z,80.95
2022-10-02T09:25:06.941Z,80.52
2022-10-02T09:27:51.638Z,79.42
2022-10-02T09:30:33.098Z,78.78
2022-10-02T09:33:34.615Z,78.99
2022-10-02T09:36:24.826Z,81.96
2022-10-02T09:39:13.570Z,80.64
2022-10-02T09:42:00.746Z,78.19
2022-10-02T09:44:46.139Z,78.12
2022-10-02T09:47:44.096Z,77.62
2022-10-02T09:50:42.343Z,78.73
2022-10-02T09:53:36.047Z,76.82
2022-10-02T09:56:17.926Z,79.47
2022-10-02T09:59:19.009Z,78.29
2022-10-02T10:02:04.694Z,78.43
2022-10-02T10:04:54.021Z,76.85
2022-10-02T10:07:39.154Z,77.22
2022-10-02T10:10:32.533Z,77.83
2022-10-02T10:13:16.130Z,77.68
2022-10-02T10:16:22.133Z,76.85
2022-10-02T10:19:07.465Z,75.16
2022-10-02T10:22:04.352Z,75.03
2022-10-02T10:25:00.603Z,75.04
2022-10-02T10:27:49.100Z,75.24
2022-10-02T10:30:58.072Z,79.59
2022-10-02T10:33:44.055Z,77.79
2022-10-02T10:36:55.301Z,76.75
2022-10-02T10:39:39.788Z,78.29
2022-10-02T10:42:27.556Z,77.06
2022-10-02T10:45:18.299Z,75.83
2022-10-02T10:48:30.037Z,77.00
2022-10-02T10:51:34.056Z,74.06
2022-10-02T10:54:33.639Z,73.99
2022-10-02T10:57:18.617Z,73.88
2022-10-02T11:00:13.492Z,75.43
2022-10-02T11:02:54.650Z,75.44
2022-10-02T11:05:49.505Z,76.17
2022-10-02T11:08:18.995Z,75.37
2022-10-02T11:11:19.734Z,73.90
2022-10-02T11:14:11.003Z,74.09
2022-10-02T11:16:44.032Z,76.24
2022-10-02T11:19:24.922Z,74.19
2022-10-02T11:22:09.832Z,71.97
2022-10-02T11:24:50.895Z,72.35
2022-10-02T11:27:45.411Z,71.30
2022-10-02T11:30:21.296Z,71.70
2022-10-02T11:33:07.205Z,73.27
2022-10-02T11:35:44.989Z,72.48
2022-10-02T11:38:30.523Z,73.07
2022-10-02T11:40:59.821Z,73.85
2022-10-02T11:43:44.201Z,72.91
2022-10-02T11:46:17.122Z,73.82
2022-10-02T11:49:31.698Z,73.42
2022-10-02T11:52:19.413Z,72.69
2022-10-02T11:55:09.861Z,69.96
2022-10-02T11:57:39.407Z,72.07
2022-10-02T12:00:35.343Z,70.89
2022-10-02T12:03:21.261Z,68.27
2022-10-02T12:06:33.797Z,71.28
2022-10-02T12:09:09.511Z,69.93
2022-10-02T12:12:16.999Z,68.99
2022-10-02T12:14:49.447Z,69.82
2022-10-02T12:17:37.812Z,71.07
2022-10-02T12:20:31.224Z,70.43
2022-10-02T12:24:06.938Z,69.25
2022-10-02T12:27:00.431Z,70.25
2022-10-02T12:29:40.464Z,69.64
2022-10-02T12:32:29.220Z,67.20
2022-10-02T12:35:17.938Z,67.84
2022-10-02T12:37:53.620Z,69.30
2022-10-02T12:40:32.788Z,68.91
2022-10-02T12:43:26.820Z,68.12
2022-10-02T12:46:15.036Z,68.47
2022-10-02T12:49:14.253Z,68.58
2022-10-02T12:52:12.720Z,67.09
2022-10-02T12:54:57.962Z,66.36
2022-10-02T12:57:52.091Z,66.55
2022-10-02T13:00:20.442Z,66.11
2022-10-02T13:03:05.515Z,66.52
2022-10-02T13:05:35.280Z,66.67
2022-10-02T13:08:41.558Z,66.60
2022-10-02T13:11:35.884Z,64.96
2022-10-02T13:14:23.422Z,66.29
2022-10-02T13:17:10.081Z,66.41
2022-10-02T13:19:53.586Z,65.30
2022-10-02T13:22:26.204Z,65.43
2022-10-02T13:25:18.687Z,64.82
2022-10-02T13:28:30.285Z,64.28
2022-10-02T13:31:36.564Z,65.31
2022-10-02T13:34:13.646Z,65.00
2022-10-02T13:37:00.431Z,64.88
2022-10-02T13:39:29.663Z,64.06
2022-10-02T13:42:14.749Z,64.11
2022-10-02T13:44:41.350Z,64.46
2022-10-02T13:47:34.069Z,64.41
2022-10-02T13:50:22.418Z,63.96
2022-10-02T13:53:03.402Z,63.79
2022-10-02T13:55:40.940Z,63.95
2022-10-02T13:58:35.561Z,63.03
2022-10-02T14:01:11.488Z,63.42
2022-10-02T14:04:10.859Z,63.25
2022-10-02T14:06:58.756Z,63.34
2022-10-02T14:09:47.289Z,63.05
2022-10-02T14:12:27.629Z,62.05
2022-10-02T14:15:12.313Z,60.36
2022-10-02T14:18:00.782Z,61.39
2022-10-02T14:20:32.011Z,60.47
2022-10-02T14:23:33.721Z,61.05
2022-10-02T14:26:18.807Z,58.89
2022-10-02T14:29:08.994Z,59.98
2022-10-02T14:31:36.175Z,60.73
2022-10-02T14:34:13.951Z,62.05
2022-10-02T14:36:59.036Z,61.48
2022-10-02T14:39:37.443Z,60.19
2022-10-02T14:42:22.121Z,61.22
2022-10-02T14:45:06.848Z,61.87
2022-10-02T14:47:51.787Z,61.77
2022-10-02T14:50:42.769Z,61.45
2022-10-02T14:53:28.108Z,61.13
2022-10-02T14:56:27.862Z,60.19
2022-10-02T14:59:12.003Z,60.35
2022-10-02T15:01:45.328Z,62.03
2022-10-02T15:04:22.532Z,61.39
2022-10-02T15:06:57.981Z,63.00
2022-10-02T15:09:49.505Z,61.56
2022-10-02T15:12:24.213Z,62.06
2022-10-02T15:15:16.036Z,62.31
2022-10-02T15:18:00.034Z,61.44
2022-10-02T15:20:48.661Z,62.35
2022-10-02T15:23:41.636Z,61.58
2022-10-02T15:26:25.758Z,61.53
2022-10-02T15:29:11.155Z,61.85
2022-10-02T15:32:04.845Z,62.02
2022-10-02T15:34:52.068Z,62.81
2022-10-02T15:37:18.601Z,62.13
2022-10-02T15:39:51.836Z,60.61
2022-10-02T15:42:41.882Z,60.96
2022-10-02T15:45:19.467Z,62.71
2022-10-02T15:48:04.941Z,64.54
2022-10-02T15:50:34.557Z,65.80
2022-10-02T15:53:26.104Z,66.03
2022-10-02T15:55:59.180Z,66.58
2022-10-02T15:58:58.439Z,66.92
2022-10-02T16:01:52.236Z,68.20
2022-10-02T16:04:27.582Z,68.19
2022-10-02T16:07:14.280Z,68.70
2022-10-02T16:09:43.624Z,69.84
2022-10-02T16:12:36.380Z,70.19
2022-10-02T16:15:32.271Z,71.24
2022-10-02T16:18:04.946Z,71.64
2022-10-02T16:21:06.370Z,72.54
2022-10-02T16:24:08.665Z,73.23
2022-10-02T16:27:00.739Z,73.82
2022-10-02T16:29:47.871Z,75.10
2022-10-02T16:32:22.113Z,74.98
2022-10-02T16:35:20.209Z,75.98
2022-10-02T16:37:59.695Z,76.60
2022-10-02T16:40:42.409Z,77.92
2022-10-02T16:43:26.986Z,78.45
2022-10-02T16:46:09.905Z,78.86
2022-10-02T16:49:19.731Z,79.13
2022-10-02T16:52:10.451Z,79.30
2022-10-02T16:54:57.401Z,79.24
2022-10-02T16:57:37.229Z,79.33
2022-10-02T17:00:23.963Z,79.56
2022-10-02T17:02:58.490Z,79.88
2022-10-02T17:05:45.727Z,80.36
2022-10-02T17:08:23.092Z,80.56
2022-10-02T17:10:53.274Z,81.14
2022-10-02T17:13:32.276Z,81.22
2022-10-02T17:16:08.073Z,81.11
2022-10-02T17:18:45.441Z,81.35
2022-10-02T17:21:24.754Z,81.26
2022-10-02T17:24:28.880Z,81.62
2022-10-02T17:27:04.260Z,81.13
2022-10-02T17:29:39.839Z,81.31
2022-10-02T17:32:09.002Z,81.19
2022-10-02T17:34:47.942Z,81.42
2022-10-02T17:37:17.396Z,81.39
2022-10-02T17:40:05.695Z,80.88
2022-10-02T17:42:41.364Z,81.44
2022-10-02T17:45:42.296Z,80.93
2022-10-02T17:48:24.366Z,80.69
2022-10-02T17:50:59.964Z,81.24
2022-10-02T17:53:51.098Z,80.67
2022-10-02T17:56:41.036Z,80.88
2022-10-02T17:59:20.085Z,80.62
2022-10-02T18:01:51.314Z,80.35
2022-10-02T18:04:24.215Z,80.84
2022-10-02T18:06:53.990Z,80.85
2022-10-02T18:09:23.527Z,80.88
2022-10-02T18:12:18.541Z,80.87
2022-10-02T18:14:51.560Z,81.16
2022-10-02T18:17:27.538Z,80.99
2022-10-02T18:20:17.095Z,80.70
2022-10-02T18:23:04.863Z,81.25
2022-10-02T18:25:41.709Z,81.66
2022-10-02T18:28:17.701Z,81.09
2022-10-02T18:30:56.956Z,80.81
2022-10-02T18:33:54.087Z,80.75
2022-10-02T18:36:50.649Z,80.98
2022-10-02T18:39:19.874Z,81.24
2022-10-02T18:42:17.076Z,80.97
2022-10-02T18:45:27.144Z,81.14
2022-10-02T18:48:20.263Z,81.49
2022-10-02T18:51:12.248Z,81.92
2022-10-02T18:53:59.654Z,83.64
2022-10-02T18:57:04.247Z,84.28
2022-10-02T18:59:45.717Z,84.07
2022-10-02T19:02:49.761Z,83.72
2022-10-02T19:05:26.082Z,84.98
2022-10-02T19:08:04.871Z,87.06
2022-10-02T19:10:31.420Z,87.22
2022-10-02T19:13:01.025Z,87.07
2022-10-02T19:15:31.095Z,86.93
2022-10-02T19:18:01.047Z,86.78
2022-10-02T19:20:53.118Z,85.40
2022-10-02T19:23:34.194Z,85.12
2022-10-02T19:26:06.135Z,84.33
2022-10-02T19:28:45.417Z,84.31
2022-10-02T19:31:13.346Z,85.04
2022-10-02T19:33:49.821Z,85.70
2022-10-02T19:36:24.142Z,85.31
2022-10-02T19:39:01.316Z,85.00
2022-10-02T19:41:35.367Z,84.40
2022-10-02T19:44:07.182Z,83.77
2022-10-02T19:46:37.139Z,84.54
2022-10-02T19:49:05.083Z,83.28
2022-10-02T19:51:43.093Z,83.05
2022-10-02T19:54:16.262Z,82.62
2022-10-02T19:56:44.706Z,82.54
2022-10-02T19:59:19.622Z,82.30
2022-10-02T20:01:49.061Z,82.27
2022-10-02T20:04:20.042Z,81.62
2022-10-02T20:06:53.041Z,82.08
2022-10-02T20:09:43.867Z,81.88
2022-10-02T20:12:15.664Z,81.89
2022-10-02T20:14:54.274Z,81.64
2022-10-02T20:17:21.016Z,80.96
2022-10-02T20:20:02.006Z,80.46
2022-10-02T20:22:31.914Z,80.94
2022-10-02T20:25:18.633Z,79.94
2022-10-02T20:27:52.493Z,80.83
2022-10-02T20:30:21.813Z,80.04
2022-10-02T20:33:03.043Z,80.02
2022-10-02T20:35:51.125Z,81.40
2022-10-02T20:38:44.648Z,82.34
2022-10-02T20:41:23.653Z,82.18
2022-10-02T20:44:02.182Z,82.08
2022-10-02T20:47:00.390Z,81.21
2022-10-02T20:49:40.259Z,81.82
2022-10-02T20:52:52.447Z,80.36
2022-10-02T20:55:27.146Z,80.74
2022-10-02T20:58:01.121Z,80.51
2022-10-02T21:00:42.926Z,80.15
2022-10-02T21:03:37.159Z,78.48
2022-10-02T21:06:26.575Z,78.94
2022-10-02T21:09:22.394Z,79.29
2022-10-02T21:11:58.417Z,79.76
2022-10-02T21:14:44.626Z,80.93
2022-10-02T21:17:48.776Z,80.81
2022-10-02T21:20:49.244Z,79.44
2022-10-02T21:23:38.950Z,79.31
2022-10-02T21:26:17.596Z,79.98
2022-10-02T21:29:08.834Z,79.54
2022-10-02T21:31:41.290Z,78.77
2022-10-02T21:34:08.800Z,78.31
2022-10-02T21:36:57.424Z,79.53
2022-10-02T21:39:45.339Z,79.75
2022-10-02T21:42:42.703Z,77.80
2022-10-02T21:45:32.240Z,78.38
2022-10-02T21:48:13.887Z,78.70
2022-10-02T21:51:13.962Z,78.36
2022-10-02T21:53:58.712Z,78.52
2022-10-02T21:56:52.630Z,78.73
2022-10-02T22:00:07.950Z,79.01
2022-10-02T22:03:22.968Z,78.00
2022-10-02T22:06:15.259Z,77.63
2022-10-02T22:08:55.221Z,77.92
2022-10-02T22:11:34.600Z,78.00
2022-10-02T22:14:09.118Z,78.53
2022-10-02T22:16:42.825Z,77.57
2022-10-02T22:19:53.956Z,77.35
2022-10-02T22:22:29.292Z,78.40
2022-10-02T22:25:14.026Z,79.36
2022-10-02T22:28:05.377Z,78.96
2022-10-02T22:30:47.817Z,79.55
2022-10-02T22:33:23.340Z,80.03
2022-10-02T22:36:27.166Z,79.87
2022-10-02T22:39:05.736Z,80.14
2022-10-02T22:41:38.635Z,79.81
2022-10-02T22:44:18.847Z,79.14
2022-10-02T22:46:54.038Z,78.68
2022-10-02T22:49:37.541Z,79.00
2022-10-02T22:52:08.744Z,78.96
2022-10-02T22:54:38.092Z,79.84
2022-10-02T22:57:12.763Z,80.24
2022-10-02T22:59:46.347Z,78.93
2022-10-02T23:02:32.682Z,78.24
2022-10-02T23:05:12.274Z,79.20
2022-10-02T23:07:49.545Z,78.32
2022-10-02T23:10:25.714Z,78.44
2022-10-02T23:13:04.403Z,77.88
2022-10-02T23:15:59.355Z,77.30
2022-10-02T23:18:36.884Z,77.75
2022-10-02T23:21:29.431Z,78.23
2022-10-02T23:24:22.558Z,78.66
2022-10-02T23:26:55.465Z,79.36
2022-10-02T23:29:46.244Z,79.32
2022-10-02T23:32:31.645Z,77.85
2022-10-02T23:35:19.160Z,77.02
2022-10-02T23:38:02.022Z,77.24
2022-10-02T23:40:50.290Z,77.28
2022-10-02T23:43:38.456Z,77.70
2022-10-02T23:46:15.893Z,77.15
2022-10-02T23:48:43.004Z,77.36
2022-10-02T23:51:15.200Z,78.22
2022-10-02T23:53:53.998Z,77.28
2022-10-02T23:56:35.585Z,77.61
2022-10-02T23:59:12.527Z,77.49
